createdAt,value
2014-11-09T00:02:32.045Z,20.2
2014-11-09T00:09:32.562Z,20.2
2014-11-09T00:14:32.995Z,20.2
2014-11-09T00:20:33.509Z,20.2
2014-11-09T00:25:33.957Z,20.2
2014-11-09T00:30:34.391Z,20.1
2014-11-09T00:37:34.938Z,20.1
2014-11-09T00:43:35.437Z,20.1
2014-11-09T00:48:35.885Z,20
2014-11-09T00:53:36.335Z,20
2014-11-09T00:58:36.783Z,20
2014-11-09T01:03:37.217Z,20
2014-11-09T01:08:37.667Z,20
2014-11-09T01:13:38.115Z,19.9
2014-11-09T01:18:38.548Z,19.9
2014-11-09T01:24:39.047Z,19.9
2014-11-09T01:30:39.546Z,19.9
2014-11-09T01:35:39.994Z,19.9
2014-11-09T01:41:40.493Z,19.8
2014-11-09T01:47:41.054Z,19.8
2014-11-09T01:53:41.489Z,19.8
2014-11-09T02:01:42.070Z,19.8
2014-11-09T02:09:42.683Z,19.7
2014-11-09T02:16:43.214Z,19.7
2014-11-09T02:24:43.826Z,19.7
2014-11-09T02:29:44.260Z,19.7
2014-11-09T02:34:44.724Z,19.7
2014-11-09T02:41:45.256Z,19.7
2014-11-09T02:48:45.804Z,19.6
2014-11-09T02:53:46.252Z,19.6
2014-11-09T03:00:46.784Z,19.6
2014-11-09T03:06:47.282Z,19.5
2014-11-09T03:11:47.748Z,19.6
2014-11-09T03:18:48.295Z,19.5
2014-11-09T03:24:48.778Z,19.5
2014-11-09T03:32:49.374Z,19.5
2014-11-09T03:39:49.921Z,19.5
2014-11-09T03:46:50.468Z,19.5
2014-11-09T03:51:50.918Z,19.4
2014-11-09T03:58:51.465Z,19.4
2014-11-09T04:06:52.061Z,19.4
2014-11-09T04:15:52.707Z,19.4
2014-11-09T04:20:53.141Z,19.3
2014-11-09T04:27:53.687Z,19.3
2014-11-09T04:33:54.187Z,19.3
2014-11-09T04:39:54.685Z,19.3
2014-11-09T04:45:55.182Z,19.3
2014-11-09T04:50:55.616Z,19.3
2014-11-09T04:55:56.066Z,19.3
2014-11-09T05:00:56.514Z,19.2
2014-11-09T05:06:56.996Z,19.2
2014-11-09T05:11:57.445Z,19.2
2014-11-09T05:16:57.879Z,19.2
2014-11-09T05:22:58.378Z,19.2
2014-11-09T05:27:58.842Z,19.2
2014-11-09T05:32:59.276Z,19.2
2014-11-09T05:39:59.823Z,19.2
2014-11-09T05:48:00.419Z,19.2
2014-11-09T05:55:00.967Z,19.1
2014-11-09T06:02:01.515Z,19.1
2014-11-09T06:08:01.997Z,19.1
2014-11-09T06:14:02.495Z,19.1
2014-11-09T06:20:02.993Z,19.1
2014-11-09T06:26:03.491Z,19.1
2014-11-09T06:32:03.974Z,19.1
2014-11-09T06:40:04.570Z,19.1
2014-11-09T06:47:05.119Z,19
2014-11-09T06:54:05.666Z,19.1
2014-11-09T07:02:06.262Z,19
2014-11-09T07:08:06.760Z,19
2014-11-09T07:14:07.273Z,19
2014-11-09T07:23:42.389Z,19
2014-11-09T07:30:42.922Z,19
2014-11-09T07:37:43.469Z,18.9
2014-11-09T07:43:43.967Z,18.9
2014-11-09T07:50:44.515Z,19
2014-11-09T07:56:45.081Z,19.1
2014-11-09T08:03:45.636Z,19.1
2014-11-09T08:09:46.141Z,19.1
2014-11-09T08:14:46.591Z,19.1
2014-11-09T08:19:47.041Z,19.1
2014-11-09T08:24:47.475Z,19.1
2014-11-09T08:29:47.923Z,19.2
2014-11-09T08:34:48.373Z,19.1
2014-11-09T08:40:48.870Z,19.2
2014-11-09T08:47:49.417Z,19.2
2014-11-09T08:52:49.851Z,19.2
2014-11-09T08:59:50.399Z,19.2
2014-11-09T09:05:50.897Z,19.2
2014-11-09T09:12:51.444Z,19.2
2014-11-09T09:17:51.894Z,19.3
2014-11-09T09:23:52.391Z,19.3
2014-11-09T14:35:01.217Z,19.9
2014-11-09T14:41:01.717Z,19.8
2014-11-09T14:48:02.263Z,19.8
2014-11-09T14:55:02.811Z,19.8
2014-11-09T15:02:03.359Z,19.8
2014-11-09T15:09:03.999Z,19.8
2014-11-09T15:15:04.404Z,19.8
2014-11-09T15:20:04.837Z,19.8
2014-11-09T15:26:05.351Z,19.8
2014-11-09T15:31:05.785Z,19.8
2014-11-09T20:03:35.933Z,20.1
2014-11-09T20:09:36.430Z,20.1
2014-11-09T20:14:36.880Z,20.2
2014-11-09T20:20:37.377Z,20.2
2014-11-09T20:25:37.827Z,20.2
2014-11-09T20:30:38.275Z,20.2
2014-11-09T20:35:38.740Z,20.1
2014-11-09T20:40:39.173Z,20
2014-11-09T20:45:39.608Z,20.1
2014-11-09T20:50:40.056Z,20.1
2014-11-09T20:56:40.539Z,20.1
2014-11-09T21:02:41.037Z,20.1
2014-11-09T21:07:41.486Z,20.1
2014-11-09T21:14:42.049Z,20.1
2014-11-09T21:20:42.532Z,20.1
2014-11-09T21:26:43.013Z,20
2014-11-09T21:33:43.593Z,20
2014-11-09T21:39:44.404Z,20
2014-11-09T21:44:44.525Z,20
2014-11-09T21:49:45.083Z,19.9
2014-11-09T21:54:45.469Z,19.9
2014-11-09T22:00:45.999Z,19.9
2014-11-09T22:05:46.386Z,19.9
2014-11-09T22:11:46.883Z,19.8
2014-11-09T22:18:47.431Z,19.8
2014-11-09T22:27:48.077Z,19.8
2014-11-09T22:33:48.576Z,19.8
2014-11-09T22:38:49.118Z,19.7
2014-11-09T22:45:49.665Z,19.7
2014-11-09T22:50:50.115Z,19.7
2014-11-09T22:56:50.612Z,19.7
2014-11-09T23:04:51.209Z,19.7
2014-11-09T23:11:51.756Z,19.6
2014-11-09T23:17:52.239Z,19.6
2014-11-09T23:23:52.738Z,19.6
2014-11-09T23:30:53.285Z,19.6
2014-11-09T23:38:53.881Z,19.6
2014-11-09T23:49:54.751Z,19.5
2014-11-09T23:56:55.470Z,19.5
